Time;durP1;ratioP1;P1;durP2;ratioP2;P2;SDS_P1;SDS_P2;PMS_P1;PMS_P2;Temp;Humidity;BMP_temperature;BMP_pressure;BME280_temperature;BME280_humidity;BME280_pressure;Samples;Min_cycle;Max_cycle;Signal;HPM_P1;HPM_P2
2024/01/20 00:01:56;;;;;;;0.90;0.90;;;-15.90;99.90;;;;;;5033360;28;20211;-73
2024/01/20 00:04:21;;;;;;;0.90;0.90;;;-15.90;99.90;;;;;;5034448;28;20621;-73
2024/01/20 00:06:47;;;;;;;1.00;1.00;;;-15.90;99.90;;;;;;5034719;28;20190;-72
2024/01/20 00:09:13;;;;;;;1.00;1.00;;;-15.90;99.90;;;;;;5034433;28;20190;-74
2024/01/20 00:11:39;;;;;;;0.90;0.90;;;-15.80;99.90;;;;;;5021690;28;20230;-73
2024/01/20 00:14:05;;;;;;;0.90;0.90;;;-15.80;99.90;;;;;;5034547;28;20186;-73
2024/01/20 00:16:30;;;;;;;0.80;0.80;;;-15.70;99.90;;;;;;5034222;28;20269;-75
2024/01/20 00:18:58;;;;;;;0.90;0.90;;;-15.70;99.90;;;;;;5034303;28;20190;-73
2024/01/20 00:21:30;;;;;;;1.00;1.00;;;-15.60;99.90;;;;;;5016114;28;20288;-73
2024/01/20 00:23:55;;;;;;;1.00;1.00;;;-15.60;99.90;;;;;;5034278;28;20190;-73
2024/01/20 00:26:21;;;;;;;0.90;0.90;;;-15.70;99.90;;;;;;5034506;28;20186;-76
2024/01/20 00:28:47;;;;;;;0.90;0.90;;;-15.70;99.90;;;;;;5017230;28;20190;-75
2024/01/20 00:31:13;;;;;;;0.90;0.90;;;-15.90;99.90;;;;;;5034893;28;20190;-75
2024/01/20 00:33:38;;;;;;;1.10;1.10;;;-16.00;99.90;;;;;;5034930;28;20542;-76
2024/01/20 00:36:04;;;;;;;1.00;1.00;;;-16.00;99.90;;;;;;5017341;28;20198;-75
2024/01/20 00:38:30;;;;;;;1.00;1.00;;;-16.00;99.90;;;;;;5034810;28;20260;-76
2024/01/20 00:40:56;;;;;;;0.90;0.90;;;-16.00;99.90;;;;;;5017307;28;20206;-77
2024/01/20 00:43:22;;;;;;;0.90;0.90;;;-16.00;99.90;;;;;;5035312;28;20277;-76
2024/01/20 00:45:48;;;;;;;0.90;0.90;;;-16.00;99.90;;;;;;5035452;28;20194;-77
2024/01/20 00:48:13;;;;;;;0.73;0.73;;;-16.00;99.90;;;;;;5034687;28;20190;-76
2024/01/20 00:50:39;;;;;;;0.90;0.90;;;-16.00;99.90;;;;;;5034099;28;20206;-76
2024/01/20 00:53:05;;;;;;;0.90;0.90;;;-16.10;99.90;;;;;;5017075;28;20297;-75
2024/01/20 00:55:30;;;;;;;0.90;0.90;;;-16.10;99.90;;;;;;5034550;28;20252;-75
2024/01/20 00:57:56;;;;;;;0.80;0.80;;;-16.10;99.90;;;;;;5034914;28;20197;-76
2024/01/20 01:00:22;;;;;;;1.00;1.00;;;-16.20;99.90;;;;;;5035035;28;20205;-76
2024/01/20 01:02:47;;;;;;;0.80;0.80;;;-16.30;99.90;;;;;;5016501;28;20194;-76
2024/01/20 01:05:13;;;;;;;0.90;0.90;;;-16.30;99.90;;;;;;5034073;28;20191;-76
2024/01/20 01:07:39;;;;;;;1.00;1.00;;;-16.40;99.90;;;;;;5033516;28;20718;-76
2024/01/20 01:10:06;;;;;;;0.90;0.90;;;-16.50;99.90;;;;;;5015761;28;20617;-76
2024/01/20 01:12:33;;;;;;;0.90;0.90;;;-16.60;99.90;;;;;;5016081;28;20197;-76
2024/01/20 01:14:59;;;;;;;0.90;0.90;;;-16.80;99.90;;;;;;5034348;28;20191;-76
2024/01/20 01:17:25;;;;;;;0.90;0.90;;;-16.80;99.90;;;;;;5033288;28;20772;-76
2024/01/20 01:19:50;;;;;;;0.90;0.90;;;-17.00;99.90;;;;;;5032969;28;20194;-76
2024/01/20 01:22:16;;;;;;;0.87;0.87;;;-17.10;99.90;;;;;;5032984;28;20252;-75
2024/01/20 01:24:42;;;;;;;0.80;0.80;;;-17.20;99.90;;;;;;5033027;28;20190;-76
2024/01/20 01:27:07;;;;;;;0.90;0.90;;;-17.20;99.90;;;;;;5015354;28;20209;-75
2024/01/20 01:29:33;;;;;;;0.90;0.90;;;-17.20;99.90;;;;;;5032775;28;20206;-75
2024/01/20 01:31:59;;;;;;;1.00;1.00;;;-17.20;99.90;;;;;;5032941;28;20240;-75
2024/01/20 01:34:24;;;;;;;0.90;0.90;;;-17.30;99.90;;;;;;5032663;28;20216;-76
2024/01/20 01:36:50;;;;;;;0.90;0.90;;;-17.50;99.90;;;;;;5015120;28;20232;-75
2024/01/20 01:39:20;;;;;;;0.80;0.80;;;-17.60;99.90;;;;;;5015214;28;20290;-75
2024/01/20 01:41:46;;;;;;;0.90;0.90;;;-17.60;99.90;;;;;;5015062;28;20240;-75
2024/01/20 01:44:12;;;;;;;0.90;0.90;;;-17.70;99.90;;;;;;5031571;28;20230;-75
2024/01/20 01:46:38;;;;;;;0.80;0.80;;;-17.80;99.90;;;;;;5032176;28;20198;-75
2024/01/20 01:49:04;;;;;;;0.90;0.90;;;-17.80;99.90;;;;;;5032480;28;20658;-75
2024/01/20 01:51:31;;;;;;;0.90;0.90;;;-17.90;99.90;;;;;;5032539;28;20555;-75
2024/01/20 01:54:01;;;;;;;0.80;0.80;;;-17.90;99.90;;;;;;5031291;28;20234;-75
2024/01/20 01:56:29;;;;;;;0.90;0.90;;;-17.90;99.90;;;;;;5030947;28;20661;-76
2024/01/20 01:58:56;;;;;;;0.90;0.90;;;-17.80;99.90;;;;;;5032484;28;20190;-76
2024/01/20 02:01:22;;;;;;;0.90;0.90;;;-17.80;99.90;;;;;;5032199;28;20278;-75
2024/01/20 02:03:48;;;;;;;0.90;0.90;;;-17.80;99.90;;;;;;5032352;28;20620;-75
2024/01/20 02:06:13;;;;;;;0.90;0.90;;;-17.70;99.90;;;;;;5014579;28;20666;-75
2024/01/20 02:08:40;;;;;;;0.90;0.90;;;-17.40;99.90;;;;;;5032059;28;20197;-74
2024/01/20 02:11:07;;;;;;;0.90;0.90;;;-17.30;99.90;;;;;;5031032;28;20230;-75
2024/01/20 02:13:33;;;;;;;0.90;0.90;;;-17.20;99.90;;;;;;5031890;28;20190;-75
2024/01/20 02:16:00;;;;;;;0.90;0.90;;;-17.00;99.90;;;;;;5032159;28;20267;-75
2024/01/20 02:18:26;;;;;;;0.90;0.90;;;-16.80;99.90;;;;;;5031755;28;20194;-75
2024/01/20 02:20:52;;;;;;;0.83;0.83;;;-16.70;99.90;;;;;;5031956;28;20391;-74
2024/01/20 02:23:18;;;;;;;0.90;0.90;;;-16.70;99.90;;;;;;5032114;28;20740;-76
2024/01/20 02:25:44;;;;;;;0.90;0.90;;;-16.70;99.90;;;;;;5032185;28;20194;-75
2024/01/20 02:28:10;;;;;;;0.90;0.90;;;-16.60;99.90;;;;;;5032136;28;20269;-76
2024/01/20 02:30:36;;;;;;;0.90;0.90;;;-16.60;99.90;;;;;;5032149;28;20648;-75
2024/01/20 02:33:01;;;;;;;0.90;0.90;;;-16.60;99.90;;;;;;5014909;28;20306;-75
2024/01/20 02:35:27;;;;;;;0.90;0.90;;;-16.70;99.90;;;;;;5031750;28;20248;-76
2024/01/20 02:37:52;;;;;;;0.80;0.80;;;-16.80;99.90;;;;;;5031734;28;20276;-75
2024/01/20 02:40:18;;;;;;;0.90;0.90;;;-17.00;99.90;;;;;;5031538;28;20333;-76
2024/01/20 02:42:44;;;;;;;0.90;0.90;;;-17.10;99.90;;;;;;5031322;28;20597;-75
2024/01/20 02:45:10;;;;;;;0.90;0.90;;;-17.20;99.90;;;;;;5031661;28;20611;-76
2024/01/20 02:47:38;;;;;;;1.50;1.40;;;-17.40;99.90;;;;;;5031447;28;20203;-76
2024/01/20 02:50:04;;;;;;;0.90;0.90;;;-17.50;99.90;;;;;;5031441;28;20197;-76
2024/01/20 02:52:30;;;;;;;0.90;0.90;;;-17.60;99.90;;;;;;5031395;28;20198;-76
2024/01/20 02:54:58;;;;;;;0.90;0.90;;;-17.70;99.90;;;;;;5031313;28;20977;-76
2024/01/20 02:57:27;;;;;;;0.87;0.87;;;-17.80;99.90;;;;;;5013409;28;20210;-76
2024/01/20 02:59:53;;;;;;;0.90;0.90;;;-17.90;99.90;;;;;;5031225;28;20202;-76
2024/01/20 03:02:19;;;;;;;0.90;0.90;;;-17.90;99.90;;;;;;5031092;28;20190;-76
2024/01/20 03:04:44;;;;;;;0.90;0.90;;;-18.00;99.90;;;;;;5031353;28;20244;-77
2024/01/20 03:07:16;;;;;;;0.90;0.90;;;-18.10;99.90;;;;;;5031722;28;20735;-77
2024/01/20 03:09:47;;;;;;;1.00;1.00;;;-18.10;99.90;;;;;;5013303;28;20229;-76
2024/01/20 03:12:13;;;;;;;0.90;0.90;;;-18.00;99.90;;;;;;5031859;28;20661;-76
2024/01/20 03:14:50;;;;;;;0.90;0.90;;;-17.90;99.90;;;;;;5031541;28;20240;-76
2024/01/20 03:17:16;;;;;;;0.90;0.90;;;-17.80;99.90;;;;;;5013991;28;20198;-76
2024/01/20 03:19:41;;;;;;;0.83;0.83;;;-17.70;99.90;;;;;;5031593;28;20190;-76
2024/01/20 03:22:07;;;;;;;0.97;0.97;;;-17.60;99.90;;;;;;5034423;28;20244;-77
2024/01/20 03:24:32;;;;;;;0.80;0.80;;;-17.40;99.90;;;;;;5035416;28;20584;-76
2024/01/20 03:26:58;;;;;;;0.90;0.90;;;-17.40;99.90;;;;;;5036094;28;20539;-76
2024/01/20 03:29:24;;;;;;;0.80;0.80;;;-17.40;99.90;;;;;;5017674;28;20228;-76
2024/01/20 03:31:49;;;;;;;0.90;0.90;;;-17.30;99.90;;;;;;5034501;28;20205;-76
2024/01/20 03:34:15;;;;;;;0.90;0.90;;;-17.30;99.90;;;;;;5017986;28;20209;-76
2024/01/20 03:36:41;;;;;;;0.90;0.90;;;-17.40;99.90;;;;;;5017622;28;20202;-76
2024/01/20 03:39:07;;;;;;;0.90;0.90;;;-17.30;99.90;;;;;;5046281;28;20197;-76
2024/01/20 03:41:32;;;;;;;0.90;0.90;;;-17.30;99.90;;;;;;5055139;28;20219;-76
2024/01/20 03:43:58;;;;;;;0.90;0.90;;;-17.30;99.90;;;;;;5037402;28;20577;-77
2024/01/20 03:46:24;;;;;;;0.87;0.87;;;-17.40;99.90;;;;;;5055127;28;20195;-77
2024/01/20 03:48:49;;;;;;;0.90;0.90;;;-17.40;99.90;;;;;;5055207;28;20198;-77
2024/01/20 03:51:15;;;;;;;0.90;0.90;;;-17.40;99.90;;;;;;5054947;28;20204;-76
2024/01/20 03:53:41;;;;;;;0.90;0.90;;;-17.60;99.90;;;;;;5054703;28;20279;-76
2024/01/20 03:56:06;;;;;;;0.90;0.90;;;-17.60;99.90;;;;;;5045014;28;20260;-76
2024/01/20 03:58:32;;;;;;;0.90;0.90;;;-17.70;99.90;;;;;;5017358;28;20206;-76
2024/01/20 04:00:58;;;;;;;0.80;0.80;;;-17.90;99.90;;;;;;5009937;28;20288;-76
2024/01/20 04:03:23;;;;;;;0.90;0.90;;;-17.90;99.90;;;;;;5032557;28;20666;-76
2024/01/20 04:05:49;;;;;;;0.90;0.90;;;-17.90;99.90;;;;;;5034810;28;20194;-76
2024/01/20 04:08:15;;;;;;;0.90;0.90;;;-17.90;99.90;;;;;;5035419;28;20190;-77
2024/01/20 04:10:41;;;;;;;0.90;0.90;;;-17.90;99.90;;;;;;5016986;28;20244;-77
2024/01/20 04:13:06;;;;;;;0.90;0.90;;;-17.90;99.90;;;;;;5017925;28;20201;-77
2024/01/20 04:15:32;;;;;;;0.90;0.90;;;-18.00;99.90;;;;;;5036391;28;20194;-77
2024/01/20 04:17:58;;;;;;;0.80;0.80;;;-18.10;99.90;;;;;;5047513;28;20187;-77
2024/01/20 04:20:24;;;;;;;0.93;0.93;;;-18.10;99.90;;;;;;5059248;28;20194;-77
2024/01/20 04:22:49;;;;;;;0.80;0.80;;;-18.20;99.90;;;;;;5059680;28;20201;-76
2024/01/20 04:25:15;;;;;;;0.90;0.90;;;-18.30;99.90;;;;;;5042215;28;20206;-76
2024/01/20 04:27:41;;;;;;;0.80;0.80;;;-18.30;99.90;;;;;;5058272;28;20193;-75
2024/01/20 04:30:12;;;;;;;0.90;0.90;;;-18.40;99.90;;;;;;5040674;28;20209;-75
2024/01/20 04:32:37;;;;;;;0.90;0.90;;;-18.50;99.90;;;;;;5056516;28;20198;-75
2024/01/20 04:35:07;;;;;;;0.80;0.80;;;-18.50;99.90;;;;;;5061573;28;20178;-76
2024/01/20 04:37:33;;;;;;;0.80;0.80;;;-18.60;99.90;;;;;;5072857;28;20196;-76
2024/01/20 04:40:00;;;;;;;0.87;0.87;;;-18.70;99.90;;;;;;5054343;28;20664;-76
2024/01/20 04:42:26;;;;;;;0.90;0.90;;;-18.80;99.90;;;;;;5046307;28;20197;-76
2024/01/20 04:44:51;;;;;;;0.80;0.80;;;-18.90;99.90;;;;;;5056225;28;20193;-76
2024/01/20 04:47:17;;;;;;;0.90;0.90;;;-19.00;99.90;;;;;;5055120;28;20193;-76
2024/01/20 04:49:42;;;;;;;0.80;0.80;;;-19.10;99.90;;;;;;5036688;28;20198;-76
2024/01/20 04:52:08;;;;;;;0.80;0.80;;;-19.20;99.90;;;;;;5045834;28;20534;-76
2024/01/20 04:54:34;;;;;;;0.80;0.80;;;-19.20;99.90;;;;;;5034575;28;20248;-76
2024/01/20 04:56:59;;;;;;;0.77;0.77;;;-19.20;99.90;;;;;;5034279;28;20198;-76
2024/01/20 04:59:25;;;;;;;0.80;0.80;;;-19.20;99.90;;;;;;5034069;28;20685;-76
2024/01/20 05:01:52;;;;;;;0.90;0.90;;;-19.20;99.90;;;;;;5034761;28;20689;-76
2024/01/20 05:04:18;;;;;;;0.90;0.90;;;-19.30;99.90;;;;;;5034449;28;20194;-76
2024/01/20 05:06:45;;;;;;;0.80;0.80;;;-19.30;99.90;;;;;;5033973;28;20208;-75
2024/01/20 05:09:12;;;;;;;0.80;0.80;;;-19.40;99.90;;;;;;5016008;28;20253;-75
2024/01/20 05:11:38;;;;;;;0.80;0.80;;;-19.40;99.90;;;;;;5033403;28;20253;-75
2024/01/20 05:14:03;;;;;;;0.83;0.83;;;-19.40;99.90;;;;;;5033679;28;20619;-75
2024/01/20 05:16:29;;;;;;;0.80;0.80;;;-19.30;99.90;;;;;;5033416;28;20198;-75
2024/01/20 05:18:55;;;;;;;0.80;0.80;;;-19.30;99.90;;;;;;5033707;28;20198;-74
2024/01/20 05:21:22;;;;;;;0.70;0.70;;;-19.30;99.90;;;;;;5015193;28;20257;-76
2024/01/20 05:23:47;;;;;;;0.80;0.80;;;-19.30;99.90;;;;;;5033452;28;20198;-75
2024/01/20 05:26:13;;;;;;;0.80;0.80;;;-19.30;99.90;;;;;;5033491;28;20198;-76
2024/01/20 05:28:38;;;;;;;0.80;0.80;;;-19.20;99.90;;;;;;5033242;28;20226;-75
2024/01/20 05:31:04;;;;;;;0.80;0.80;;;-19.20;99.90;;;;;;5033288;28;20198;-76
2024/01/20 05:33:30;;;;;;;0.67;0.67;;;-19.00;99.90;;;;;;5031747;28;20261;-75
2024/01/20 05:35:56;;;;;;;0.80;0.80;;;-18.90;99.90;;;;;;5033128;28;20261;-75
2024/01/20 05:38:22;;;;;;;0.80;0.80;;;-18.60;99.90;;;;;;5031583;28;20202;-75
2024/01/20 05:40:47;;;;;;;0.90;0.90;;;-18.70;99.90;;;;;;5031761;28;20217;-75
2024/01/20 05:43:13;;;;;;;0.83;0.83;;;-18.80;99.90;;;;;;5031591;28;20295;-74
2024/01/20 05:45:38;;;;;;;0.90;0.90;;;-18.90;99.90;;;;;;5032902;28;20405;-75
2024/01/20 05:48:04;;;;;;;0.90;0.90;;;-19.00;99.90;;;;;;5032992;28;20190;-75
2024/01/20 05:50:30;;;;;;;0.90;0.90;;;-19.10;99.90;;;;;;5032937;28;20221;-76
2024/01/20 05:52:56;;;;;;;0.90;0.90;;;-19.20;99.90;;;;;;5033490;28;20202;-75
2024/01/20 05:55:21;;;;;;;0.80;0.80;;;-19.20;99.90;;;;;;5014802;28;20202;-75
2024/01/20 05:57:47;;;;;;;0.90;0.90;;;-19.30;99.90;;;;;;5015724;28;20263;-76
2024/01/20 06:00:13;;;;;;;0.90;0.90;;;-19.40;99.90;;;;;;5014849;28;20214;-75
2024/01/20 06:02:39;;;;;;;0.80;0.80;;;-19.50;99.90;;;;;;5031317;28;20727;-76
2024/01/20 06:05:05;;;;;;;0.80;0.80;;;-19.50;99.90;;;;;;5032678;28;20202;-75
2024/01/20 06:07:30;;;;;;;0.90;0.90;;;-19.50;99.90;;;;;;5032437;28;20195;-75
2024/01/20 06:09:56;;;;;;;0.90;0.90;;;-19.50;99.90;;;;;;5014891;28;20225;-75
2024/01/20 06:12:22;;;;;;;0.90;0.90;;;-19.20;99.90;;;;;;5032574;28;20732;-75
2024/01/20 06:14:47;;;;;;;0.90;0.90;;;-19.20;99.90;;;;;;5015071;28;20210;-75
2024/01/20 06:17:13;;;;;;;0.80;0.80;;;-19.20;99.90;;;;;;5014760;28;20202;-73
2024/01/20 06:19:39;;;;;;;0.90;0.90;;;-19.00;99.90;;;;;;5032026;28;20194;-73
2024/01/20 06:22:04;;;;;;;0.90;0.90;;;-18.80;99.90;;;;;;5032254;28;20214;-73
2024/01/20 06:24:30;;;;;;;0.90;0.90;;;-18.80;99.90;;;;;;5032032;28;20194;-73
2024/01/20 06:26:56;;;;;;;0.80;0.80;;;-18.90;99.90;;;;;;5031953;28;20201;-72
2024/01/20 06:29:22;;;;;;;0.80;0.80;;;-18.90;99.90;;;;;;5031944;28;20197;-72
2024/01/20 06:31:47;;;;;;;0.90;0.90;;;-19.00;99.90;;;;;;5032230;28;20202;-73
2024/01/20 06:34:13;;;;;;;0.90;0.90;;;-19.10;99.90;;;;;;5032051;28;20194;-72
2024/01/20 06:36:39;;;;;;;1.00;1.00;;;-19.20;99.90;;;;;;5031823;28;20201;-72
2024/01/20 06:39:05;;;;;;;0.80;0.80;;;-19.30;99.90;;;;;;5032261;28;20666;-73
2024/01/20 06:41:31;;;;;;;0.90;0.90;;;-19.40;99.90;;;;;;5032233;28;20217;-73
2024/01/20 06:43:57;;;;;;;0.80;0.80;;;-19.50;99.90;;;;;;5030524;28;20270;-72
2024/01/20 06:46:23;;;;;;;0.90;0.90;;;-19.60;99.90;;;;;;5013920;28;20206;-73
2024/01/20 06:48:50;;;;;;;0.90;0.90;;;-19.60;99.90;;;;;;5031862;28;20201;-72
2024/01/20 06:51:15;;;;;;;0.90;0.90;;;-19.70;99.90;;;;;;5031801;28;20198;-73
2024/01/20 06:53:42;;;;;;;0.80;0.80;;;-19.70;99.90;;;;;;5014063;28;20217;-73
2024/01/20 06:56:08;;;;;;;0.90;0.90;;;-19.80;99.90;;;;;;5031293;28;20288;-73
2024/01/20 06:58:34;;;;;;;0.90;0.90;;;-19.90;99.90;;;;;;5031536;28;20682;-73
2024/01/20 07:01:00;;;;;;;0.90;0.90;;;-19.90;99.90;;;;;;5030433;28;20685;-73
2024/01/20 07:03:26;;;;;;;0.90;0.90;;;-20.00;99.90;;;;;;5031472;28;20313;-73
2024/01/20 07:05:51;;;;;;;0.90;0.90;;;-20.10;99.90;;;;;;5013907;28;20202;-73
2024/01/20 07:08:17;;;;;;;0.90;0.90;;;-20.20;99.90;;;;;;5014022;28;20198;-73
2024/01/20 07:10:43;;;;;;;0.90;0.90;;;-20.30;99.90;;;;;;5031400;28;20654;-74
2024/01/20 07:13:08;;;;;;;0.90;0.90;;;-20.40;99.90;;;;;;5031521;28;20222;-74
2024/01/20 07:15:34;;;;;;;1.00;1.00;;;-20.60;99.90;;;;;;5031449;28;20205;-73
2024/01/20 07:18:00;;;;;;;0.70;0.70;;;-20.60;99.90;;;;;;5031637;28;20201;-73
2024/01/20 07:20:25;;;;;;;0.80;0.80;;;-20.70;99.90;;;;;;5030931;28;20213;-73
2024/01/20 07:22:51;;;;;;;0.90;0.90;;;-20.60;99.90;;;;;;5031464;28;20285;-74
2024/01/20 07:25:18;;;;;;;0.80;0.80;;;-20.60;99.90;;;;;;5050873;28;20201;-74
2024/01/20 07:27:44;;;;;;;0.80;0.80;;;-20.60;99.90;;;;;;5033201;28;20202;-74
2024/01/20 07:30:10;;;;;;;0.90;0.90;;;-20.60;99.90;;;;;;5033455;28;20664;-73
2024/01/20 07:32:39;;;;;;;0.90;0.90;;;-20.60;99.90;;;;;;5051331;28;20193;-74
2024/01/20 07:35:05;;;;;;;0.90;0.90;;;-20.60;99.90;;;;;;5051186;28;20197;-73
2024/01/20 07:37:31;;;;;;;0.80;0.80;;;-20.60;99.90;;;;;;5033122;28;20284;-73
2024/01/20 07:39:57;;;;;;;0.80;0.80;;;-20.70;99.90;;;;;;5032876;28;20229;-74
2024/01/20 07:42:22;;;;;;;0.90;0.90;;;-20.80;99.90;;;;;;5013313;28;20300;-73
2024/01/20 07:44:48;;;;;;;0.90;0.90;;;-20.80;99.90;;;;;;5029949;28;20621;-73
2024/01/20 07:47:15;;;;;;;0.80;0.80;;;-20.80;99.90;;;;;;5031263;28;20586;-75
2024/01/20 07:49:40;;;;;;;0.90;0.90;;;-20.80;99.90;;;;;;5031132;28;20606;-74
2024/01/20 07:52:06;;;;;;;0.80;0.80;;;-20.70;99.90;;;;;;5031135;28;20278;-73
2024/01/20 07:54:32;;;;;;;0.90;0.90;;;-20.60;99.90;;;;;;5031140;28;20313;-73
2024/01/20 07:56:57;;;;;;;0.80;0.80;;;-20.60;99.90;;;;;;5031244;28;20692;-73
2024/01/20 07:59:23;;;;;;;0.83;0.83;;;-20.60;99.90;;;;;;5031000;28;20194;-73
2024/01/20 08:01:49;;;;;;;0.80;0.80;;;-20.60;99.90;;;;;;5031105;28;20681;-74
2024/01/20 08:04:15;;;;;;;0.90;0.90;;;-20.50;99.90;;;;;;5031079;28;20186;-73
2024/01/20 08:06:41;;;;;;;0.80;0.80;;;-20.50;99.90;;;;;;5031064;28;20190;-73
2024/01/20 08:09:07;;;;;;;0.90;0.90;;;-20.40;99.90;;;;;;5033692;28;20187;-74
2024/01/20 08:11:32;;;;;;;0.80;0.80;;;-20.40;99.90;;;;;;5034466;28;20222;-73
2024/01/20 08:13:58;;;;;;;0.83;0.83;;;-20.30;99.90;;;;;;5017314;28;20209;-73
2024/01/20 08:16:28;;;;;;;0.90;0.90;;;-20.30;99.90;;;;;;5034645;28;20328;-73
2024/01/20 08:18:55;;;;;;;0.90;0.90;;;-20.30;99.90;;;;;;5034605;28;20197;-73
2024/01/20 08:21:21;;;;;;;0.80;0.80;;;-20.50;99.90;;;;;;5050446;28;20217;-74
2024/01/20 08:23:46;;;;;;;0.90;0.90;;;-20.60;99.90;;;;;;5054614;28;20193;-74
2024/01/20 08:26:12;;;;;;;0.90;0.90;;;-20.60;99.90;;;;;;5054344;28;20564;-73
2024/01/20 08:28:38;;;;;;;0.90;0.90;;;-20.60;99.90;;;;;;5054248;28;20665;-73
2024/01/20 08:31:03;;;;;;;0.90;0.90;;;-20.60;99.90;;;;;;5053828;28;20316;-74
2024/01/20 08:33:29;;;;;;;0.90;0.90;;;-20.60;99.90;;;;;;5053805;28;20185;-73
2024/01/20 08:35:55;;;;;;;0.80;0.80;;;-20.60;99.90;;;;;;5054205;28;20251;-76
2024/01/20 08:38:20;;;;;;;0.90;0.90;;;-20.50;99.90;;;;;;5035439;28;20203;-76
2024/01/20 08:40:46;;;;;;;3.97;3.63;;;-20.40;99.90;;;;;;5032486;28;20213;-77
2024/01/20 08:43:15;;;;;;;0.90;0.90;;;-20.30;99.90;;;;;;5033810;28;20194;-77
2024/01/20 08:45:41;;;;;;;0.90;0.90;;;-20.30;99.90;;;;;;5015658;28;20201;-77
2024/01/20 08:48:07;;;;;;;0.90;0.90;;;-20.30;99.90;;;;;;5033640;28;20190;-76
2024/01/20 08:50:33;;;;;;;0.80;0.80;;;-20.20;99.90;;;;;;5034061;28;20207;-77
2024/01/20 08:52:58;;;;;;;0.93;0.93;;;-20.20;99.90;;;;;;5033947;28;20198;-78
2024/01/20 08:55:24;;;;;;;0.90;0.90;;;-20.20;99.90;;;;;;5033365;28;20244;-78
2024/01/20 08:57:49;;;;;;;0.90;0.90;;;-20.20;99.90;;;;;;5015937;28;20273;-78
2024/01/20 09:00:16;;;;;;;0.80;0.80;;;-20.10;99.90;;;;;;5015669;28;20198;-76
2024/01/20 09:02:43;;;;;;;0.90;0.90;;;-20.00;99.90;;;;;;5015862;28;20205;-77
2024/01/20 09:05:09;;;;;;;0.90;0.90;;;-19.90;99.90;;;;;;5033763;28;20252;-78
2024/01/20 09:07:35;;;;;;;0.90;0.90;;;-19.80;99.90;;;;;;5015489;28;20194;-78
2024/01/20 09:10:03;;;;;;;1.07;1.07;;;-19.70;99.90;;;;;;5015796;28;20579;-77
2024/01/20 09:12:28;;;;;;;0.90;0.90;;;-19.60;99.90;;;;;;5033721;28;20194;-77
2024/01/20 09:14:55;;;;;;;1.97;1.87;;;-19.60;99.90;;;;;;5032692;28;20339;-77
2024/01/20 09:17:20;;;;;;;0.90;0.90;;;-19.50;99.90;;;;;;5034355;28;20205;-76
2024/01/20 09:19:46;;;;;;;0.90;0.90;;;-19.50;99.90;;;;;;5026305;28;20198;-75
2024/01/20 09:22:12;;;;;;;0.90;0.90;;;-19.50;99.90;;;;;;5058566;28;20213;-75
2024/01/20 09:24:37;;;;;;;1.00;1.00;;;-19.50;99.90;;;;;;5040811;28;20197;-77
2024/01/20 09:27:05;;;;;;;0.87;0.87;;;-19.50;99.90;;;;;;5057954;28;20202;-77
2024/01/20 09:29:31;;;;;;;0.90;0.90;;;-19.60;99.90;;;;;;5039127;28;20194;-76
2024/01/20 09:31:56;;;;;;;0.90;0.90;;;-19.60;99.90;;;;;;5038897;28;20190;-77
2024/01/20 09:34:22;;;;;;;0.90;0.90;;;-19.60;99.90;;;;;;5056561;28;20225;-76
2024/01/20 09:36:49;;;;;;;0.90;0.90;;;-19.50;99.90;;;;;;5056852;28;20194;-75
2024/01/20 09:39:15;;;;;;;0.90;0.90;;;-19.40;99.90;;;;;;5039499;28;20210;-76
2024/01/20 09:41:42;;;;;;;0.90;0.90;;;-19.30;99.90;;;;;;5055996;28;20205;-77
2024/01/20 09:44:08;;;;;;;0.80;0.80;;;-19.30;99.90;;;;;;5039104;28;20218;-78
2024/01/20 09:46:34;;;;;;;1.00;1.00;;;-19.20;99.90;;;;;;5055007;28;20193;-76
2024/01/20 09:49:00;;;;;;;0.90;0.90;;;-19.20;99.90;;;;;;5045459;28;20301;-76
2024/01/20 09:51:31;;;;;;;0.90;0.90;;;-19.10;99.90;;;;;;5036596;28;20886;-76
2024/01/20 09:54:00;;;;;;;0.90;0.90;;;-19.10;99.90;;;;;;5035521;28;20261;-76
2024/01/20 09:56:27;;;;;;;0.80;0.80;;;-19.00;99.90;;;;;;5033774;28;20194;-76
2024/01/20 09:58:57;;;;;;;0.90;0.90;;;-18.90;99.90;;;;;;5033504;28;20194;-75
2024/01/20 10:01:24;;;;;;;0.90;0.90;;;-18.80;99.90;;;;;;5033274;28;20268;-76
2024/01/20 10:03:50;;;;;;;1.00;1.00;;;-18.70;99.90;;;;;;5015643;28;20198;-76
2024/01/20 10:06:16;;;;;;;0.90;0.90;;;-18.60;99.90;;;;;;5015512;28;20326;-76
2024/01/20 10:08:42;;;;;;;1.00;1.00;;;-18.60;99.90;;;;;;5031539;28;20309;-77
2024/01/20 10:11:07;;;;;;;0.90;0.90;;;-18.50;99.90;;;;;;5031688;28;20257;-75
2024/01/20 10:13:33;;;;;;;0.90;0.90;;;-18.50;99.90;;;;;;5032721;28;20220;-76
2024/01/20 10:15:59;;;;;;;0.90;0.90;;;-18.40;99.90;;;;;;5033123;28;20198;-76
2024/01/20 10:18:24;;;;;;;0.90;0.90;;;-18.30;99.90;;;;;;5032962;28;20281;-76
2024/01/20 10:21:01;;;;;;;0.93;0.93;;;-18.10;99.90;;;;;;5032610;28;20249;-76
2024/01/20 10:23:26;;;;;;;1.00;1.00;;;-18.00;99.90;;;;;;5032638;28;20793;-76
2024/01/20 10:26:06;;;;;;;6.00;2.40;;;-18.00;99.90;;;;;;5033015;28;20283;-76
2024/01/20 10:28:32;;;;;;;0.80;0.80;;;-18.00;99.90;;;;;;5032339;28;20192;-76
2024/01/20 10:30:58;;;;;;;0.80;0.80;;;-18.00;99.90;;;;;;5032252;28;20206;-76
2024/01/20 10:33:24;;;;;;;0.90;0.90;;;-18.00;99.90;;;;;;5032435;28;20260;-76
2024/01/20 10:35:52;;;;;;;0.97;0.97;;;-18.00;99.90;;;;;;5032373;28;20220;-76
2024/01/20 10:38:21;;;;;;;0.90;0.90;;;-18.00;99.90;;;;;;5014604;28;20202;-76
2024/01/20 10:40:53;;;;;;;0.87;0.87;;;-17.90;99.90;;;;;;5014880;28;20224;-76
2024/01/20 10:43:19;;;;;;;0.90;0.90;;;-17.90;99.90;;;;;;5031974;28;20283;-75
2024/01/20 10:46:16;;;;;;;0.90;0.90;;;-17.90;99.90;;;;;;5014934;28;20232;-76
2024/01/20 10:48:47;;;;;;;0.80;0.80;;;-18.00;99.90;;;;;;5026820;28;20290;-76
2024/01/20 10:51:18;;;;;;;0.90;0.90;;;-18.00;99.90;;;;;;5031818;28;20635;-76
2024/01/20 10:53:46;;;;;;;1.33;1.23;;;-18.00;99.90;;;;;;5031941;28;20608;-77
2024/01/20 10:56:13;;;;;;;0.90;0.90;;;-18.00;99.90;;;;;;5031756;28;20282;-74
2024/01/20 10:58:48;;;;;;;0.90;0.90;;;-18.00;99.90;;;;;;5031562;28;20272;-74
2024/01/20 11:01:14;;;;;;;0.90;0.90;;;-17.90;99.90;;;;;;5031179;28;20676;-74
2024/01/20 11:03:40;;;;;;;0.80;0.80;;;-17.80;99.90;;;;;;5031315;28;20204;-74
2024/01/20 11:06:06;;;;;;;0.90;0.90;;;-17.70;99.90;;;;;;5013599;28;20197;-74
2024/01/20 11:08:32;;;;;;;1.40;1.30;;;-17.60;99.90;;;;;;5030757;28;20198;-75
2024/01/20 11:10:59;;;;;;;0.90;0.90;;;-17.50;99.90;;;;;;5031289;28;20320;-75
2024/01/20 11:13:27;;;;;;;0.97;0.97;;;-17.30;99.90;;;;;;5031098;28;20252;-74
2024/01/20 11:15:55;;;;;;;0.90;0.90;;;-17.20;99.90;;;;;;5031209;28;20646;-74
2024/01/20 11:18:23;;;;;;;1.20;1.20;;;-17.40;99.90;;;;;;5031314;28;20281;-75
2024/01/20 11:21:02;;;;;;;0.80;0.80;;;-17.40;99.90;;;;;;5031038;28;20206;-75
2024/01/20 11:23:29;;;;;;;0.90;0.90;;;-17.40;99.90;;;;;;5013430;28;20202;-74
2024/01/20 11:25:57;;;;;;;0.90;0.90;;;-17.40;99.90;;;;;;5031193;28;20202;-76
2024/01/20 11:28:33;;;;;;;0.80;0.80;;;-17.50;99.90;;;;;;5030987;28;20281;-74
2024/01/20 11:30:59;;;;;;;0.90;0.90;;;-17.40;99.90;;;;;;5013078;28;20422;-73
2024/01/20 11:33:25;;;;;;;2.00;1.80;;;-17.40;99.90;;;;;;5029915;28;20409;-73
2024/01/20 11:35:54;;;;;;;0.90;0.90;;;-17.40;99.90;;;;;;5013800;28;20202;-75
2024/01/20 11:38:21;;;;;;;0.97;0.97;;;-17.30;99.90;;;;;;5030772;28;20194;-74
2024/01/20 11:41:00;;;;;;;0.90;0.90;;;-17.30;99.90;;;;;;5013101;28;20206;-74
2024/01/20 11:43:26;;;;;;;1.00;1.00;;;-17.30;99.90;;;;;;5033746;28;20623;-73
2024/01/20 11:45:52;;;;;;;0.90;0.90;;;-17.20;99.90;;;;;;5017191;28;20205;-73
2024/01/20 11:48:21;;;;;;;0.90;0.90;;;-17.10;99.90;;;;;;5016941;28;20247;-74
2024/01/20 11:50:47;;;;;;;0.90;0.90;;;-17.10;99.90;;;;;;5034833;28;20197;-74
2024/01/20 11:53:13;;;;;;;0.90;0.90;;;-17.10;99.90;;;;;;5035229;28;20272;-74
2024/01/20 11:55:39;;;;;;;0.90;0.90;;;-17.20;99.90;;;;;;5034622;28;20194;-73
2024/01/20 11:58:05;;;;;;;0.90;0.90;;;-17.30;99.90;;;;;;5016926;28;20198;-73
2024/01/20 12:00:30;;;;;;;0.90;0.90;;;-17.30;99.90;;;;;;5034471;28;20232;-75
2024/01/20 12:02:56;;;;;;;1.87;1.77;;;-17.40;99.90;;;;;;5034849;28;20198;-73
2024/01/20 12:05:22;;;;;;;0.90;0.90;;;-17.40;99.90;;;;;;5034242;28;20205;-72
2024/01/20 12:07:48;;;;;;;0.90;0.90;;;-17.40;99.90;;;;;;5033279;28;20197;-72
2024/01/20 12:10:17;;;;;;;1.00;1.00;;;-17.40;99.90;;;;;;5034465;28;20287;-72
2024/01/20 12:12:43;;;;;;;0.93;0.93;;;-17.30;99.90;;;;;;5042995;28;20191;-72
2024/01/20 12:15:09;;;;;;;0.90;0.90;;;-17.20;99.90;;;;;;5054683;28;20189;-71
2024/01/20 12:17:35;;;;;;;1.00;1.00;;;-17.10;99.90;;;;;;5054115;28;20321;-72
2024/01/20 12:20:01;;;;;;;0.90;0.90;;;-17.20;99.90;;;;;;5054194;28;20201;-71
2024/01/20 12:22:27;;;;;;;0.90;0.90;;;-17.20;99.90;;;;;;5043221;28;20241;-71
2024/01/20 12:24:54;;;;;;;0.83;0.83;;;-17.20;99.90;;;;;;5034374;28;20268;-72
2024/01/20 12:27:20;;;;;;;0.90;0.90;;;-17.20;99.90;;;;;;5034056;28;20291;-73
2024/01/20 12:29:45;;;;;;;0.90;0.90;;;-17.30;99.90;;;;;;5034315;28;20190;-71
2024/01/20 12:32:11;;;;;;;0.90;0.90;;;-17.30;99.90;;;;;;5034059;28;20253;-71